NCAR-RAP Real-Time Weather Data

Output produced by METARs form (17 September 2019  16:31 UTC)
found at http://weather.rap.ucar.edu/surface/
 
KMBS 171553Z 15005KT 10SM OVC018 19/14 A3024 RMK AO2 SLP240 T01940144
KMBS 171453Z 12004KT 10SM OVC017 19/14 A3025 RMK AO2 SLP241 T01890144 58000
KMBS 171353Z 10004KT 10SM OVC015 18/14 A3025 RMK AO2 SLP244 T01780144
KMBS 171320Z 08003KT 10SM BKN015 17/14 A3026 RMK AO2 T01720144
KMBS 171311Z 05003KT 10SM FEW015 17/14 A3025 RMK AO2 T01720144
KMBS 171253Z 00000KT 10SM BKN016 17/14 A3025 RMK AO2 SLP244 T01670144
KMBS 171228Z 00000KT 8SM OVC016 17/14 A3025 RMK AO2 T01670144
KMBS 171153Z 00000KT 4SM BR OVC011 16/14 A3025 RMK AO2 SLP242 T01560139 10156 20133 53010
KMBS 171142Z 00000KT 4SM BR OVC010 16/14 A3025 RMK AO2 T01560139
KMBS 171101Z 00000KT 2 1/2SM BR OVC006 15/14 A3024 RMK AO2 CIG 002V010 T01500139
KMBS 171053Z 04003KT 2SM BR BKN003 OVC008 15/14 A3023 RMK AO2 CIG 002V006 SLP237 T01500139
KMBS 170953Z 05003KT 1 3/4SM BR OVC003 14/13 A3022 RMK AO2 SLP231 T01440133
KMBS 170951Z AUTO 04003KT 1 3/4SM BR OVC003 14/13 A3022 RMK AO2
KMBS 170853Z AUTO 10005KT 5SM BR OVC003 14/13 A3020 RMK AO2 SLP223 T01440133 53001
KMBS 170832Z AUTO 00000KT 4SM BR OVC004 14/13 A3019 RMK AO2 T01440133
KMBS 170823Z AUTO 07003KT 2SM R23/4000VP6000FT BR OVC004 14/13 A3019 RMK AO2 VIS 1V5 T01440133
KMBS 170815Z AUTO 04003KT 1/2SM R23/3000V5000FT FG VV004 14/13 A3019 RMK AO2 T01440133
KMBS 170753Z AUTO 36003KT 1/4SM R23/1600V2600FT FG BKN003 OVC012 14/13 A3019 RMK AO2 SLP221 T01390128
KMBS 170749Z AUTO 36003KT 1/4SM R23/1600V2200FT FG BKN004 OVC012 14/13 A3019 RMK AO2
KMBS 170745Z AUTO 35003KT 1/2SM R23/1600V2400FT FG BKN004 OVC012 14/13 A3019 RMK AO2 T01440133
KMBS 170737Z AUTO 00000KT 1/2SM R23/1800V2200FT FG BKN004 OVC012 14/13 A3019 RMK AO2 T01390128
KMBS 170723Z AUTO 04003KT 1/4SM R23/1200V1600FT FG BKN006 OVC013 14/13 A3019 RMK AO2 T01390128
KMBS 170712Z AUTO 00000KT 3/4SM R23/1200V1800FT BR VV006 13/12 A3019 RMK AO2 T01330122
KMBS 170703Z AUTO 00000KT 1/2SM R23/1200V2000FT FG VV003 13/12 A3019 RMK AO2 T01330122
KMBS 170653Z AUTO 00000KT 1/4SM R23/2000V2800FT FG VV001 13/13 A3019 RMK AO2 SLP221 T01330128
KMBS 170649Z AUTO 00000KT 1/4SM R23/2000V2600FT FG VV002 14/13 A3019 RMK AO2
KMBS 170636Z AUTO 36003KT 1/4SM R23/1400V1800FT FG VV001 14/13 A3019 RMK AO2 T01390133
KMBS 170617Z AUTO 00000KT 1/4SM R23/4500VP6000FT FG VV001 14/13 A3020 RMK AO2 T01440133
KMBS 170608Z AUTO 33004KT 1/2SM R23/4000VP6000FT FG VV001 14/13 A3019 RMK AO2 T01440133
KMBS 170606Z AUTO 33004KT 1SM R23/4500VP6000FT BR VV002 14/13 A3019 RMK AO2 T01440133
KMBS 170603Z AUTO 33004KT 2SM BR FEW002 15/14 A3019 RMK AO2 VIS 1V5 T01500139
KMBS 170553Z AUTO 00000KT 5SM BR CLR 15/13 A3019 RMK AO2 SLP222 T01500133 10189 20144 53007
KMBS 170453Z AUTO 00000KT 9SM CLR 15/13 A3018 RMK AO2 SLP218 T01500133 402440150
KMBS 170353Z AUTO 05004KT 10SM CLR 16/14 A3018 RMK AO2 SLP217 T01610144
KMBS 170253Z AUTO 03005KT 10SM CLR 16/14 A3017 RMK AO2 SLP216 T01610144 51011
KMBS 170053Z 05006KT 10SM CLR 18/15 A3015 RMK AO2 SLP210 T01780150
KMBS 162353Z 07006KT 10SM CLR 19/16 A3014 RMK AO2 SLP205 T01890161 10244 20189 52008
KMBS 162253Z 05008KT 10SM CLR 21/16 A3013 RMK AO2 SLP200 T02110161
KMBS 162153Z 05008KT 10SM CLR 23/17 A3012 RMK AO2 SLP198 T02280172
KMBS 162053Z 07006KT 10SM CLR 24/17 A3011 RMK AO2 SLP194 T02390172 56007
KMBS 161953Z 04006KT 10SM FEW022 24/17 A3011 RMK AO2 SLP195 T02390172
KMBS 161943Z 03008KT 10SM FEW022 SCT050 24/18 A3012 RMK AO2 T02390178
KMBS 161933Z 02010KT 10SM BKN023 24/18 A3012 RMK AO2 T02390178